Time;durP1;ratioP1;P1;durP2;ratioP2;P2;SDS_P1;SDS_P2;PMS_P1;PMS_P2;Temp;Humidity;BMP_temperature;BMP_pressure;BME280_temperature;BME280_humidity;BME280_pressure;Samples;Min_cycle;Max_cycle;Signal;HPM_P1;HPM_P2
2022/08/05 00:00:50;;;;;;;3.95;2.38;;;;;;;23.32;49.37;95575.47;5028901;28;24446;-72
2022/08/05 00:03:16;;;;;;;2.65;1.75;;;;;;;23.34;48.47;95575.31;5029401;28;24455;-72
2022/08/05 00:05:43;;;;;;;1.73;1.63;;;;;;;23.25;47.93;95568.44;5029495;28;24856;-72
2022/08/05 00:08:09;;;;;;;2.50;1.67;;;;;;;23.24;48.54;95570.28;5029376;28;24542;-71
2022/08/05 00:10:36;;;;;;;2.10;1.83;;;;;;;23.18;48.49;95577.13;5029319;28;24898;-71
2022/08/05 00:13:03;;;;;;;2.67;1.80;;;;;;;23.09;48.87;95580.00;5028857;28;24431;-71
2022/08/05 00:15:30;;;;;;;4.03;2.08;;;;;;;23.21;49.19;95577.75;5029232;28;24436;-71
2022/08/05 00:17:56;;;;;;;3.50;2.13;;;;;;;23.06;51.14;95581.16;5027084;28;24468;-71
2022/08/05 00:20:23;;;;;;;2.60;2.03;;;;;;;22.72;52.48;95573.66;5029280;28;24447;-71
2022/08/05 00:22:49;;;;;;;2.80;2.20;;;;;;;22.64;52.36;95568.44;5028709;28;25031;-71
2022/08/05 00:25:16;;;;;;;4.00;2.25;;;;;;;22.47;53.18;95575.63;5029235;28;24443;-71
2022/08/05 00:27:42;;;;;;;2.22;2.03;;;;;;;22.53;54.77;95567.03;5029166;28;24447;-71
2022/08/05 00:30:11;;;;;;;3.05;2.20;;;;;;;22.32;54.81;95570.31;5028668;28;24451;-71
2022/08/05 00:32:38;;;;;;;2.58;2.20;;;;;;;21.95;55.66;95566.50;5029293;28;24989;-71
2022/08/05 00:35:05;;;;;;;2.30;2.10;;;;;;;21.90;55.90;95568.81;5029015;28;24455;-71
2022/08/05 00:37:32;;;;;;;3.10;2.25;;;;;;;22.12;53.70;95579.59;5027414;28;24443;-71
2022/08/05 00:39:58;;;;;;;3.25;2.42;;;;;;;22.27;54.60;95569.97;5028918;28;24440;-71
2022/08/05 00:42:32;;;;;;;2.70;1.98;;;;;;;22.37;55.42;95567.13;5028150;28;24547;-71
2022/08/05 00:44:58;;;;;;;2.70;2.20;;;;;;;22.04;55.55;95577.81;5027877;28;24456;-71
2022/08/05 00:47:26;;;;;;;3.40;2.10;;;;;;;22.10;55.11;95581.56;5032458;28;24841;-71
2022/08/05 00:49:53;;;;;;;3.50;2.00;;;;;;;22.09;56.14;95578.09;5032586;28;25019;-70
2022/08/05 00:52:20;;;;;;;5.53;2.15;;;;;;;22.07;55.95;95584.56;5032540;28;24432;-71
2022/08/05 00:54:46;;;;;;;2.60;1.98;;;;;;;22.15;51.11;95592.47;5032683;28;24519;-71
2022/08/05 00:57:13;;;;;;;2.33;1.88;;;;;;;22.43;55.63;95601.56;5032373;28;24443;-71
2022/08/05 00:59:41;;;;;;;2.50;2.17;;;;;;;22.05;56.03;95594.47;5032149;28;25005;-71
2022/08/05 01:02:07;;;;;;;3.03;1.95;;;;;;;21.60;56.28;95601.19;5032742;28;24466;-71
2022/08/05 01:04:36;;;;;;;2.38;1.77;;;;;;;21.49;55.63;95603.19;5032346;28;24509;-71
2022/08/05 01:07:02;;;;;;;3.22;2.15;;;;;;;21.41;55.24;95602.41;5024820;28;24443;-71
2022/08/05 01:09:29;;;;;;;2.10;1.60;;;;;;;21.48;54.72;95604.19;5032301;28;25054;-71
2022/08/05 01:12:02;;;;;;;2.63;2.10;;;;;;;21.61;55.08;95608.94;5031815;28;24443;-71
2022/08/05 01:14:34;;;;;;;3.53;1.92;;;;;;;21.59;55.66;95615.38;5032569;28;24428;-71
2022/08/05 01:17:04;;;;;;;2.92;1.92;;;;;;;21.60;54.88;95617.84;5032167;28;24530;-70
2022/08/05 01:19:39;;;;;;;2.70;2.10;;;;;;;21.68;54.22;95622.25;5032357;28;24489;-71
2022/08/05 01:22:23;;;;;;;2.35;2.03;;;;;;;21.68;54.05;95619.63;5031952;28;24462;-71
2022/08/05 01:25:05;;;;;;;2.80;2.17;;;;;;;21.75;53.73;95613.50;5029193;28;24455;-71
2022/08/05 01:28:08;;;;;;;2.80;1.97;;;;;;;21.89;53.09;95614.63;5026052;28;25012;-71
2022/08/05 01:30:39;;;;;;;2.30;2.10;;;;;;;22.02;53.36;95611.44;5032049;28;24438;-71
2022/08/05 01:33:09;;;;;;;4.10;2.05;;;;;;;22.12;53.59;95613.88;5031840;28;24431;-71
2022/08/05 01:35:39;;;;;;;1.70;1.50;;;;;;;22.20;52.71;95611.22;5032053;28;24440;-71
2022/08/05 01:38:08;;;;;;;2.90;1.92;;;;;;;22.10;53.32;95616.69;5031666;28;24444;-71
2022/08/05 01:40:34;;;;;;;3.15;2.00;;;;;;;;;;5031981;28;24675;-71
2022/08/05 01:43:03;;;;;;;2.33;1.80;;;;;;;22.11;53.17;95620.16;5031417;28;24560;-71
2022/08/05 01:45:30;;;;;;;2.07;1.80;;;;;;;22.43;52.92;95622.69;5034298;28;24460;-70
2022/08/05 01:48:01;;;;;;;2.28;1.80;;;;;;;22.83;53.16;95618.13;5036439;28;24440;-71
2022/08/05 01:50:35;;;;;;;6.55;2.25;;;;;;;22.86;52.98;95615.13;5028185;28;24443;-71
2022/08/05 01:53:07;;;;;;;4.93;2.10;;;;;;;22.89;53.26;95622.72;5030623;28;24435;-70
2022/08/05 01:55:35;;;;;;;4.13;2.23;;;;;;;22.80;53.65;95625.56;5031760;28;24440;-71
2022/08/05 01:58:05;;;;;;;5.13;2.40;;;;;;;22.78;54.46;95625.75;5030106;28;24451;-71
2022/08/05 02:00:34;;;;;;;4.60;2.10;;;;;;;22.88;54.53;95618.44;5031691;28;24442;-71
2022/08/05 02:03:06;;;;;;;6.10;2.38;;;;;;;22.97;54.48;95619.22;5031337;28;24538;-71
2022/08/05 02:05:36;;;;;;;3.53;2.05;;;;;;;23.05;55.07;95615.69;5025650;28;24547;-70
2022/08/05 02:08:03;;;;;;;7.28;2.10;;;;;;;23.31;55.53;95629.34;5030993;28;24439;-71
2022/08/05 02:10:34;;;;;;;5.03;1.85;;;;;;;23.13;56.14;95626.19;5031356;28;24431;-70
2022/08/05 02:13:07;;;;;;;5.60;1.90;;;;;;;23.04;56.75;95627.25;5031541;28;24534;-71
2022/08/05 02:15:36;;;;;;;5.65;2.40;;;;;;;23.04;58.42;95624.63;5031269;28;24436;-71
2022/08/05 02:18:07;;;;;;;3.50;2.10;;;;;;;23.16;58.06;95636.41;5029431;28;24490;-71
2022/08/05 02:20:43;;;;;;;8.20;2.80;;;;;;;23.17;57.92;95635.41;5029767;28;24440;-71
2022/08/05 02:23:13;;;;;;;4.65;2.22;;;;;;;23.19;59.36;95628.94;5030818;28;24439;-71
2022/08/05 02:25:43;;;;;;;5.63;2.47;;;;;;;23.25;59.68;95632.72;5031111;28;24506;-71
2022/08/05 02:28:14;;;;;;;5.88;2.33;;;;;;;23.25;60.24;95632.72;5030917;28;24505;-71
2022/08/05 02:30:44;;;;;;;3.65;1.98;;;;;;;23.31;60.20;95637.25;5027799;28;24840;-71
2022/08/05 02:33:11;;;;;;;6.57;2.45;;;;;;;23.28;60.46;95639.44;5030638;28;24443;-71
2022/08/05 02:35:39;;;;;;;4.07;2.50;;;;;;;23.27;61.11;95638.63;5030979;28;24447;-71
2022/08/05 02:38:06;;;;;;;3.55;2.10;;;;;;;23.22;61.55;95635.72;5030573;28;25018;-71
2022/08/05 02:40:33;;;;;;;7.18;2.72;;;;;;;23.11;62.56;95642.22;5030814;28;24458;-71
2022/08/05 02:43:01;;;;;;;10.65;2.53;;;;;;;23.03;62.94;95647.56;5030303;28;24462;-71
2022/08/05 02:45:32;;;;;;;5.43;2.72;;;;;;;23.09;62.93;95659.25;5030176;28;24490;-71
2022/08/05 02:48:01;;;;;;;4.80;2.60;;;;;;;23.14;62.89;95670.94;5006747;22;1734098;-77
2022/08/05 02:50:29;;;;;;;5.57;2.25;;;;;;;23.36;61.99;95671.06;5049721;28;24443;-78
2022/08/05 02:52:57;;;;;;;4.17;2.33;;;;;;;23.25;62.43;95674.13;5055206;28;24432;-78
2022/08/05 02:55:24;;;;;;;4.72;2.20;;;;;;;22.99;63.39;95670.06;5053580;28;24995;-78
2022/08/05 02:57:52;;;;;;;4.55;2.35;;;;;;;23.09;63.66;95669.81;5063243;28;24466;-78
2022/08/05 03:00:19;;;;;;;7.95;2.50;;;;;;;23.08;63.95;95668.19;5061525;28;24438;-78
2022/08/05 03:02:48;;;;;;;6.43;2.53;;;;;;;23.04;63.80;95672.16;5061930;28;24496;-78
2022/08/05 03:05:15;;;;;;;5.05;2.50;;;;;;;22.86;64.04;95669.78;5062055;28;24523;-78
2022/08/05 03:07:43;;;;;;;3.88;2.60;;;;;;;22.96;64.14;95659.03;5055111;28;25007;-77
2022/08/05 03:10:10;;;;;;;6.22;2.50;;;;;;;22.77;65.82;95666.38;5061357;28;24446;-76
2022/08/05 03:12:38;;;;;;;9.17;2.53;;;;;;;22.79;65.57;95658.25;5061715;28;24430;-76
2022/08/05 03:15:07;;;;;;;6.47;2.60;;;;;;;22.66;65.55;95664.13;5063988;28;24822;-77
2022/08/05 03:17:33;;;;;;;5.95;2.53;;;;;;;22.59;66.34;95668.44;5062305;28;24443;-77
2022/08/05 03:20:01;;;;;;;3.42;2.45;;;;;;;22.57;66.29;95651.94;5057995;28;24995;-77
2022/08/05 03:22:28;;;;;;;5.45;2.35;;;;;;;22.58;66.70;95661.50;5049614;28;24446;-77
2022/08/05 03:24:55;;;;;;;7.60;2.72;;;;;;;22.71;66.57;95652.03;5061702;28;25012;-78
2022/08/05 03:27:22;;;;;;;8.95;2.80;;;;;;;22.77;66.61;95653.16;5059910;28;24446;-77
2022/08/05 03:29:49;;;;;;;3.92;2.60;;;;;;;22.52;67.64;95641.09;5057891;28;24458;-77
2022/08/05 03:32:16;;;;;;;3.28;2.30;;;;;;;22.40;68.33;95644.13;5052600;28;24454;-78
2022/08/05 03:34:43;;;;;;;4.78;2.97;;;;;;;22.26;69.17;95646.66;5062242;28;24496;-77
2022/08/05 03:37:11;;;;;;;4.07;2.97;;;;;;;22.04;70.61;95670.13;5062538;28;24866;-77
2022/08/05 03:39:38;;;;;;;8.68;3.10;;;;;;;21.97;70.46;95667.31;5057146;28;24853;-76
2022/08/05 03:42:05;;;;;;;12.93;2.80;;;;;;;22.07;70.52;95666.31;5055771;28;24781;-76
2022/08/05 03:44:31;;;;;;;3.38;2.35;;;;;;;22.13;70.10;95658.53;5061268;28;24458;-76
2022/08/05 03:46:58;;;;;;;3.42;2.42;;;;;;;22.15;69.66;95655.78;5058872;28;24449;-76
2022/08/05 03:49:24;;;;;;;4.13;2.58;;;;;;;22.13;69.82;95647.16;5053921;28;24442;-76
2022/08/05 03:51:58;;;;;;;7.85;2.72;;;;;;;22.10;68.66;95642.22;5050318;28;24435;-76
2022/08/05 03:54:33;;;;;;;4.22;3.03;;;;;;;21.87;69.16;95642.97;5062789;28;24491;-78
2022/08/05 03:57:02;;;;;;;5.23;2.73;;;;;;;21.70;69.74;95649.28;5061520;28;24930;-78
2022/08/05 03:59:33;;;;;;;5.93;2.83;;;;;;;21.58;70.93;95651.44;5054649;28;24439;-78
2022/08/05 04:02:02;;;;;;;5.43;3.20;;;;;;;21.50;70.83;95654.88;5052309;28;24435;-78
2022/08/05 04:04:31;;;;;;;6.57;2.90;;;;;;;21.44;70.90;95654.75;5054466;28;24547;-76
2022/08/05 04:06:58;;;;;;;3.67;2.63;;;;;;;21.37;71.05;95669.56;5061562;28;24443;-77
2022/08/05 04:09:26;;;;;;;3.65;2.50;;;;;;;21.17;71.40;95676.94;5062051;28;24445;-78
2022/08/05 04:11:54;;;;;;;3.88;2.42;;;;;;;20.98;72.32;95694.69;5062588;28;24443;-78
2022/08/05 04:14:20;;;;;;;3.50;2.50;;;;;;;20.93;72.16;95706.72;5062417;28;24492;-78
2022/08/05 04:16:47;;;;;;;8.93;2.53;;;;;;;20.94;71.90;95718.88;5060130;28;24505;-78
2022/08/05 04:19:14;;;;;;;4.20;2.47;;;;;;;21.13;71.28;95733.56;5058748;28;25003;-77
2022/08/05 04:21:41;;;;;;;6.30;2.40;;;;;;;21.35;70.19;95754.03;5065718;28;24488;-78
2022/08/05 04:24:08;;;;;;;2.60;2.28;;;;;;;21.54;69.10;95749.44;5055668;28;24438;-77
2022/08/05 04:26:34;;;;;;;5.05;2.28;;;;;;;21.67;67.85;95745.31;5058784;28;24500;-78
2022/08/05 04:29:03;;;;;;;3.30;2.60;;;;;;;21.82;67.04;95747.28;5053691;28;24969;-77
2022/08/05 04:31:29;;;;;;;2.63;2.20;;;;;;;21.85;66.57;95745.16;5057356;28;24447;-78
2022/08/05 04:33:55;;;;;;;3.70;2.40;;;;;;;21.86;66.15;95751.25;5069572;28;24434;-78
2022/08/05 04:36:22;;;;;;;3.70;2.40;;;;;;;21.76;66.40;95759.31;5063452;28;24438;-77
2022/08/05 04:38:48;;;;;;;3.58;2.05;;;;;;;21.78;66.21;95772.34;5062557;28;24446;-76
2022/08/05 04:41:15;;;;;;;3.72;2.20;;;;;;;21.66;66.75;95803.47;5054334;28;24489;-77
2022/08/05 04:43:41;;;;;;;5.70;2.53;;;;;;;21.66;66.47;95825.38;5052798;28;24500;-78
2022/08/05 04:46:09;;;;;;;10.30;2.50;;;;;;;21.86;65.73;95835.59;5058881;28;25066;-78
2022/08/05 04:48:35;;;;;;;6.70;2.80;;;;;;;21.95;65.46;95830.19;5062856;28;24443;-78
2022/08/05 04:51:02;;;;;;;6.73;2.50;;;;;;;22.00;65.31;95837.59;5060726;28;24443;-77
2022/08/05 04:53:28;;;;;;;4.10;2.60;;;;;;;22.05;65.58;95837.09;5066577;28;24434;-77
2022/08/05 04:55:55;;;;;;;5.50;2.75;;;;;;;22.13;65.13;95842.34;5065721;28;24979;-77
2022/08/05 04:58:21;;;;;;;4.88;2.50;;;;;;;22.28;64.62;95853.09;5063704;28;24993;-78
2022/08/05 05:00:48;;;;;;;5.90;2.60;;;;;;;22.33;65.43;95863.97;5060297;28;24427;-78
2022/08/05 05:03:16;;;;;;;4.85;2.25;;;;;;;22.35;67.18;95876.00;5066161;28;24437;-77
2022/08/05 05:05:42;;;;;;;4.40;2.40;;;;;;;22.52;68.65;95879.47;5066212;28;24671;-78
2022/08/05 05:08:10;;;;;;;4.47;2.28;;;;;;;22.65;68.16;95885.03;5065033;28;24439;-77
2022/08/05 05:10:40;;;;;;;7.30;2.80;;;;;;;22.72;68.97;95877.25;5061001;28;24445;-77
2022/08/05 05:13:07;;;;;;;8.57;2.90;;;;;;;22.74;70.01;95875.28;5062686;28;24474;-76
2022/08/05 05:15:33;;;;;;;4.72;2.88;;;;;;;22.66;69.57;95883.22;5057437;28;24437;-75
2022/08/05 05:18:00;;;;;;;6.63;2.78;;;;;;;22.80;68.95;95871.94;5055234;28;24447;-76
2022/08/05 05:20:28;;;;;;;5.47;2.60;;;;;;;22.68;70.19;95876.78;5050656;28;24840;-74
2022/08/05 05:22:54;;;;;;;4.90;2.50;;;;;;;22.74;69.90;95883.22;5063004;28;24844;-74
2022/08/05 05:25:21;;;;;;;8.13;3.15;;;;;;;22.87;70.14;95883.47;5060179;28;24475;-75
2022/08/05 05:27:47;;;;;;;4.55;2.78;;;;;;;22.73;71.74;95891.28;5057304;28;24834;-73
2022/08/05 05:30:14;;;;;;;4.93;2.75;;;;;;;22.76;72.17;95885.66;5060885;28;24427;-76
2022/08/05 05:32:41;;;;;;;6.18;2.92;;;;;;;22.81;72.24;95894.75;5062715;28;24434;-72
2022/08/05 05:35:08;;;;;;;7.83;2.80;;;;;;;22.84;72.65;95906.75;5051368;28;24805;-75
2022/08/05 05:37:46;;;;;;;11.43;3.17;;;;;;;22.69;73.47;95906.63;5060019;28;24489;-76
2022/08/05 05:40:14;;;;;;;7.65;3.00;;;;;;;22.54;74.66;95895.94;5054968;28;24441;-76
2022/08/05 05:42:41;;;;;;;6.15;3.20;;;;;;;22.54;74.78;95903.84;5050429;28;24446;-76
2022/08/05 05:45:08;;;;;;;5.90;3.15;;;;;;;22.63;74.82;95888.84;5050816;28;24463;-75
2022/08/05 05:47:35;;;;;;;4.88;3.05;;;;;;;22.72;74.48;95887.81;5047567;28;25003;-77
2022/08/05 05:50:01;;;;;;;12.05;3.45;;;;;;;22.76;75.65;95888.31;5052794;28;25032;-74
2022/08/05 05:52:28;;;;;;;11.35;3.40;;;;;;;22.87;75.96;95883.47;5051882;28;24852;-75
2022/08/05 05:54:59;;;;;;;5.47;3.10;;;;;;;23.15;74.32;95883.09;5052277;28;24991;-76
2022/08/05 05:57:25;;;;;;;15.52;4.10;;;;;;;23.18;75.04;95880.94;5054498;28;24450;-75
2022/08/05 05:59:51;;;;;;;6.20;3.27;;;;;;;23.35;73.59;95875.56;5060635;28;24480;-74
2022/08/05 06:02:18;;;;;;;6.10;3.17;;;;;;;23.37;72.62;95885.00;5055185;28;24458;-75
2022/08/05 06:04:44;;;;;;;7.25;3.15;;;;;;;23.42;72.28;95882.63;5061265;28;24438;-75
2022/08/05 06:07:11;;;;;;;8.02;3.00;;;;;;;23.41;72.20;95885.47;5060902;28;25007;-76
2022/08/05 06:09:37;;;;;;;6.80;3.00;;;;;;;23.34;72.40;95876.59;5060402;28;24493;-76
2022/08/05 06:12:06;;;;;;;8.05;2.40;;;;;;;23.42;71.56;95881.81;5050093;28;24462;-75
2022/08/05 06:14:33;;;;;;;4.93;2.50;;;;;;;23.58;70.35;95880.91;5048698;28;24462;-76
2022/08/05 06:16:59;;;;;;;7.07;2.80;;;;;;;23.73;70.51;95883.66;5061722;28;24431;-75
2022/08/05 06:19:26;;;;;;;6.00;2.70;;;;;;;23.75;69.01;95882.50;5055107;28;24855;-75
2022/08/05 06:21:53;;;;;;;8.07;2.90;;;;;;;24.08;68.06;95892.84;5062470;28;24449;-75
2022/08/05 06:24:19;;;;;;;3.78;2.55;;;;;;;24.30;66.62;95884.06;5064313;28;24450;-75
2022/08/05 06:26:46;;;;;;;5.72;2.55;;;;;;;24.18;65.98;95901.38;5053101;28;24520;-74
2022/08/05 06:29:14;;;;;;;3.53;2.42;;;;;;;24.24;66.30;95898.00;5052683;28;24488;-74
2022/08/05 06:31:40;;;;;;;3.63;2.00;;;;;;;24.04;65.42;95902.13;5057540;28;24489;-76
2022/08/05 06:34:07;;;;;;;6.32;2.63;;;;;;;24.06;65.68;95895.66;5056713;28;25014;-77
2022/08/05 06:36:33;;;;;;;3.83;2.13;;;;;;;24.09;64.67;95894.47;5059270;28;24434;-77
2022/08/05 06:38:59;;;;;;;2.97;1.90;;;;;;;24.12;64.65;95897.59;5050953;28;24435;-76
2022/08/05 06:41:26;;;;;;;3.58;2.00;;;;;;;24.22;61.55;95894.72;5049817;28;24505;-76
2022/08/05 06:43:52;;;;;;;4.87;1.90;;;;;;;24.51;61.33;95896.66;5049114;28;24831;-76
2022/08/05 06:46:20;;;;;;;2.45;1.50;;;;;;;24.40;59.44;95910.31;5055491;28;24460;-75
2022/08/05 06:48:46;;;;;;;4.78;1.88;;;;;;;24.32;58.98;95915.63;5063323;28;24430;-76
2022/08/05 06:51:13;;;;;;;3.13;1.60;;;;;;;24.32;58.17;95910.34;5061938;28;24434;-75
2022/08/05 06:53:39;;;;;;;3.85;1.85;;;;;;;24.05;58.53;95919.66;5064861;28;24843;-76
2022/08/05 06:56:06;;;;;;;2.78;1.60;;;;;;;24.30;58.66;95913.19;5062068;28;24434;-76
2022/08/05 06:58:33;;;;;;;2.25;1.60;;;;;;;24.66;57.19;95920.50;5062820;28;24438;-75
2022/08/05 07:01:00;;;;;;;2.17;1.50;;;;;;;24.88;55.88;95929.38;5061584;28;24430;-75
2022/08/05 07:03:29;;;;;;;2.30;1.33;;;;;;;24.66;56.21;95933.75;5062541;28;25029;-75
2022/08/05 07:05:55;;;;;;;3.05;1.65;;;;;;;24.55;55.85;95942.13;5061787;28;24447;-75
2022/08/05 07:08:22;;;;;;;7.72;1.70;;;;;;;24.58;55.60;95950.53;5062426;28;24435;-75
2022/08/05 07:10:49;;;;;;;1.42;1.30;;;;;;;24.66;55.50;95949.66;5058662;28;24437;-75
2022/08/05 07:18:44;;;;;;;4.47;1.40;;;;;;;25.48;55.82;95949.63;5054121;28;24410;-76
2022/08/05 07:21:11;;;;;;;3.05;1.70;;;;;;;25.68;51.85;95955.16;5053314;28;24434;-75
2022/08/05 07:23:38;;;;;;;2.77;1.50;;;;;;;25.59;51.82;95962.41;5061567;28;24531;-75
2022/08/05 07:26:04;;;;;;;2.03;1.50;;;;;;;25.51;51.44;95959.88;5049601;28;24447;-75
2022/08/05 07:28:31;;;;;;;2.30;1.48;;;;;;;25.50;51.55;95960.84;5050584;28;24470;-75
2022/08/05 07:30:58;;;;;;;1.45;1.27;;;;;;;25.06;52.95;95955.53;5049452;28;24801;-75
2022/08/05 07:33:24;;;;;;;1.33;1.23;;;;;;;25.13;52.46;95961.78;5051070;28;24439;-75
2022/08/05 07:35:52;;;;;;;3.53;1.27;;;;;;;25.00;51.96;95956.28;5054067;28;24423;-75
2022/08/05 07:38:19;;;;;;;2.03;1.40;;;;;;;24.74;53.16;95962.81;5052229;28;24438;-75
2022/08/05 07:40:46;;;;;;;2.17;1.15;;;;;;;24.59;53.39;95959.31;5054149;28;25003;-75
2022/08/05 07:43:13;;;;;;;2.15;1.48;;;;;;;24.55;53.66;95958.84;5053151;28;25013;-75
2022/08/05 07:45:41;;;;;;;3.13;1.50;;;;;;;24.74;52.96;95956.69;5049722;28;24906;-75
2022/08/05 07:48:08;;;;;;;2.70;1.50;;;;;;;24.87;53.31;95959.53;5054608;28;25008;-76
2022/08/05 07:50:35;;;;;;;1.60;1.30;;;;;;;25.23;51.84;95967.63;5058375;28;24439;-76
2022/08/05 07:53:03;;;;;;;4.28;1.60;;;;;;;24.91;51.61;95960.00;5054122;28;24436;-75
2022/08/05 07:55:30;;;;;;;3.57;1.60;;;;;;;25.01;51.24;95964.03;5049385;28;24434;-75
2022/08/05 07:57:56;;;;;;;3.50;1.35;;;;;;;25.15;50.76;95951.84;5053731;28;24517;-74
2022/08/05 08:00:24;;;;;;;1.65;1.27;;;;;;;25.31;50.96;95951.63;5061313;28;25002;-74
2022/08/05 08:02:50;;;;;;;3.73;1.50;;;;;;;25.47;50.24;95952.44;5061651;28;24436;-74
2022/08/05 08:05:17;;;;;;;5.30;1.60;;;;;;;25.55;49.75;95955.03;5047815;28;24438;-75
2022/08/05 08:07:43;;;;;;;3.03;1.40;;;;;;;25.16;50.84;95958.78;5062558;28;24435;-75
2022/08/05 08:10:11;;;;;;;1.50;1.20;;;;;;;25.41;50.22;95947.91;5058221;28;24836;-74
2022/08/05 08:12:37;;;;;;;3.60;1.30;;;;;;;25.88;48.68;95933.38;5049986;28;24836;-75
2022/08/05 08:15:05;;;;;;;2.25;1.65;;;;;;;25.65;49.23;95950.22;5055783;28;24492;-75
2022/08/05 08:17:31;;;;;;;2.45;1.33;;;;;;;25.86;48.88;95940.72;5048617;28;24493;-75
2022/08/05 08:19:58;;;;;;;2.30;1.30;;;;;;;26.05;47.79;95940.09;5052486;28;24439;-73
2022/08/05 08:22:26;;;;;;;2.53;1.30;;;;;;;26.26;47.11;95926.84;5064741;28;24457;-75
2022/08/05 08:24:53;;;;;;;2.50;1.23;;;;;;;26.50;45.08;95927.47;5055039;28;24453;-71
2022/08/05 08:27:21;;;;;;;2.53;1.60;;;;;;;26.10;46.83;95921.75;5061605;28;24458;-72
2022/08/05 08:29:48;;;;;;;1.52;1.20;;;;;;;26.35;46.34;95921.41;5057427;28;24513;-74
2022/08/05 08:32:15;;;;;;;1.63;1.23;;;;;;;26.51;45.82;95908.72;5056120;28;24434;-74
2022/08/05 08:34:41;;;;;;;2.10;1.40;;;;;;;26.61;45.55;95912.84;5054761;28;24812;-74
2022/08/05 08:37:08;;;;;;;2.05;1.30;;;;;;;26.52;45.54;95909.53;5062974;28;25053;-74
2022/08/05 08:39:34;;;;;;;1.42;1.27;;;;;;;26.44;44.71;95910.47;5063456;28;24434;-74
2022/08/05 08:42:02;;;;;;;1.97;1.60;;;;;;;26.71;44.70;95911.50;5059654;28;24450;-75
2022/08/05 08:44:31;;;;;;;2.55;1.40;;;;;;;27.08;42.89;95904.19;5054768;28;24450;-74
2022/08/05 08:46:58;;;;;;;3.40;1.50;;;;;;;27.29;43.51;95894.50;5078451;22;24807;-75
2022/08/05 08:49:25;;;;;;;1.58;1.17;;;;;;;26.95;43.06;95896.94;5037034;28;24995;-76
2022/08/05 08:51:58;;;;;;;3.10;1.60;;;;;;;27.52;42.08;95892.34;5036213;28;24884;-75
2022/08/05 08:54:25;;;;;;;1.73;1.17;;;;;;;27.38;41.73;95878.19;5032062;28;24438;-76
2022/08/05 08:56:52;;;;;;;3.20;1.40;;;;;;;27.33;42.28;95893.06;5030336;28;25296;-75
2022/08/05 08:59:19;;;;;;;1.50;1.13;;;;;;;27.34;41.84;95884.09;5026514;28;24435;-75
2022/08/05 09:01:47;;;;;;;1.95;1.23;;;;;;;27.24;42.05;95882.63;5027968;28;24432;-77
2022/08/05 09:04:14;;;;;;;1.55;1.38;;;;;;;27.18;43.05;95879.91;5024820;28;24517;-77
2022/08/05 09:06:40;;;;;;;3.38;1.52;;;;;;;27.26;42.20;95875.28;5032775;28;24448;-77
2022/08/05 09:09:07;;;;;;;1.67;1.10;;;;;;;27.33;41.58;95874.47;5040453;28;24871;-77
2022/08/05 09:11:35;;;;;;;4.95;1.40;;;;;;;27.48;41.53;95873.31;5044374;28;24983;-77
2022/08/05 09:14:02;;;;;;;3.63;1.50;;;;;;;27.82;42.33;95868.94;5042437;28;24439;-77
2022/08/05 09:16:28;;;;;;;2.80;1.37;;;;;;;28.40;40.06;95857.75;5030134;28;24431;-77
2022/08/05 09:18:56;;;;;;;1.40;1.20;;;;;;;28.35;39.37;95863.66;5025703;28;24435;-77
2022/08/05 09:21:23;;;;;;;1.92;1.40;;;;;;;28.46;39.33;95854.28;5032307;28;24462;-77
2022/08/05 09:24:04;;;;;;;2.03;1.33;;;;;;;29.41;39.66;95865.38;5041329;28;24500;-77
2022/08/05 09:26:30;;;;;;;3.33;1.20;;;;;;;29.08;37.57;95858.31;5036263;28;24551;-76
2022/08/05 09:29:00;;;;;;;2.92;1.30;;;;;;;29.10;38.20;95852.75;5032773;28;25336;-77
2022/08/05 09:31:27;;;;;;;4.25;1.40;;;;;;;29.80;37.79;95861.69;5028587;28;25038;-77
2022/08/05 09:33:57;;;;;;;1.90;1.43;;;;;;;30.05;36.77;95856.41;5031947;28;24782;-77
2022/08/05 09:36:25;;;;;;;2.20;1.00;;;;;;;28.97;37.23;95858.91;5040709;28;24423;-77
2022/08/05 09:38:58;;;;;;;1.63;1.23;;;;;;;28.93;37.67;95863.03;5038036;28;24510;-75
2022/08/05 09:41:25;;;;;;;2.47;1.38;;;;;;;29.58;39.31;95863.88;5035523;28;24485;-74
2022/08/05 09:43:52;;;;;;;2.15;1.45;;;;;;;30.22;35.95;95858.56;5030917;28;24498;-77
2022/08/05 09:46:27;;;;;;;1.87;1.30;;;;;;;29.72;36.29;95859.28;5044763;28;24455;-76
2022/08/05 09:48:54;;;;;;;1.70;1.20;;;;;;;30.18;36.10;95857.38;5032519;28;24431;-77
2022/08/05 09:51:32;;;;;;;1.67;1.00;;;;;;;30.65;35.20;95855.94;5039595;28;24820;-75
2022/08/05 09:53:59;;;;;;;1.73;1.30;;;;;;;30.98;34.25;95857.53;5035752;28;24968;-75
2022/08/05 09:56:27;;;;;;;2.17;1.30;;;;;;;30.70;34.78;95849.94;5043192;28;24434;-76
2022/08/05 09:59:04;;;;;;;1.80;1.20;;;;;;;30.05;35.00;95860.94;5040096;28;24538;-75
2022/08/05 10:01:33;;;;;;;2.60;1.30;;;;;;;30.11;35.10;95863.56;5036867;28;24489;-75
2022/08/05 10:04:03;;;;;;;2.10;1.58;;;;;;;30.19;35.13;95864.38;5031358;28;25051;-75
2022/08/05 10:06:31;;;;;;;2.53;1.35;;;;;;;30.32;34.28;95861.59;5043608;28;24470;-76
2022/08/05 10:09:11;;;;;;;2.40;1.23;;;;;;;31.29;34.77;95860.03;5041114;28;24438;-75
2022/08/05 10:11:37;;;;;;;2.28;1.33;;;;;;;31.42;34.11;95858.28;5039879;28;24466;-74
2022/08/05 10:14:21;;;;;;;3.83;1.40;;;;;;;31.46;32.61;95851.44;5039655;28;24482;-75
2022/08/05 10:16:47;;;;;;;1.75;1.25;;;;;;;31.77;32.86;95847.72;5043637;28;24510;-74
2022/08/05 10:19:15;;;;;;;2.10;1.17;;;;;;;31.99;32.22;95846.19;5039421;28;24485;-75
2022/08/05 10:21:44;;;;;;;2.13;1.30;;;;;;;32.26;31.49;95843.09;5041518;28;24450;-74
2022/08/05 10:24:12;;;;;;;2.10;1.30;;;;;;;32.42;31.37;95842.47;5039352;28;24439;-75
2022/08/05 10:26:40;;;;;;;2.55;1.23;;;;;;;31.92;31.28;95844.66;5041847;28;24457;-75
2022/08/05 10:29:07;;;;;;;2.03;1.20;;;;;;;31.71;31.92;95837.94;5037545;28;24436;-75
2022/08/05 10:31:34;;;;;;;1.35;0.90;;;;;;;31.87;31.56;95836.50;5037193;28;24432;-74
2022/08/05 10:34:01;;;;;;;2.58;1.33;;;;;;;32.05;31.23;95845.28;5034345;28;24440;-75
2022/08/05 10:36:28;;;;;;;1.17;1.05;;;;;;;31.91;31.70;95841.16;5037770;28;24435;-75
2022/08/05 10:39:03;;;;;;;3.10;1.40;;;;;;;31.42;32.18;95837.69;5039807;28;24435;-74
2022/08/05 10:41:34;;;;;;;2.95;1.20;;;;;;;31.57;33.34;95838.09;5037670;28;24432;-75
2022/08/05 10:44:05;;;;;;;2.80;1.20;;;;;;;32.10;31.80;95836.56;5039645;28;24792;-76
2022/08/05 10:46:44;;;;;;;2.00;1.43;;;;;;;32.50;31.52;95836.75;5030761;28;24444;-75
2022/08/05 10:49:10;;;;;;;1.60;1.40;;;;;;;32.38;30.36;95830.53;5039199;28;24519;-75
2022/08/05 10:51:42;;;;;;;2.28;1.38;;;;;;;31.92;32.04;95833.94;5039335;28;24435;-76
2022/08/05 10:54:10;;;;;;;1.50;1.30;;;;;;;31.96;31.12;95825.22;5039070;28;24435;-75
2022/08/05 10:56:46;;;;;;;2.20;1.33;;;;;;;32.56;32.36;95826.97;5042357;28;24984;-76
2022/08/05 10:59:17;;;;;;;3.33;1.33;;;;;;;32.46;31.14;95827.53;5041663;28;24442;-74
2022/08/05 11:01:44;;;;;;;2.90;1.30;;;;;;;31.90;31.41;95830.69;5035319;28;24833;-75
2022/08/05 11:04:11;;;;;;;6.15;1.40;;;;;;;32.02;31.53;95826.16;5036849;28;24535;-75
2022/08/05 11:07:07;;;;;;;4.17;1.23;;;;;;;32.38;31.55;95825.19;5042104;28;25038;-74
2022/08/05 11:09:45;;;;;;;1.45;1.20;;;;;;;32.44;30.95;95829.63;5029564;28;24443;-75
2022/08/05 11:12:44;;;;;;;1.67;1.10;;;;;;;32.04;31.77;95824.91;5042022;28;25062;-75
2022/08/05 11:15:17;;;;;;;2.13;1.42;;;;;;;32.29;31.98;95826.56;5031689;28;24468;-75
2022/08/05 11:17:45;;;;;;;2.72;1.60;;;;;;;32.26;31.43;95835.06;5040407;28;24427;-76
2022/08/05 11:20:40;;;;;;;2.30;1.17;;;;;;;31.92;30.60;95831.25;5032498;28;24439;-76
2022/08/05 11:23:31;;;;;;;3.35;1.50;;;;;;;32.28;31.70;95835.66;5039191;28;24451;-76
2022/08/05 11:26:07;;;;;;;3.63;1.25;;;;;;;32.34;32.64;95832.06;5037061;28;24873;-76
2022/08/05 11:28:44;;;;;;;4.50;1.35;;;;;;;32.04;30.89;95832.13;5042557;28;24456;-75
2022/08/05 11:31:26;;;;;;;1.88;1.30;;;;;;;32.41;31.20;95831.97;5040684;28;24438;-74
2022/08/05 11:33:55;;;;;;;1.95;1.30;;;;;;;32.14;31.13;95823.50;5039959;28;24526;-75
2022/08/05 11:36:38;;;;;;;1.92;1.30;;;;;;;31.98;30.90;95823.13;5042162;28;24434;-75
2022/08/05 11:39:05;;;;;;;2.25;1.40;;;;;;;32.19;31.41;95824.47;5038873;28;24435;-75
2022/08/05 11:41:35;;;;;;;2.58;1.40;;;;;;;32.39;30.35;95823.31;5041921;28;24632;-76
2022/08/05 11:44:05;;;;;;;3.80;1.30;;;;;;;32.52;30.46;95823.94;5040318;28;24796;-74
2022/08/05 11:46:33;;;;;;;1.48;1.38;;;;;;;32.67;29.89;95826.16;5041388;28;24435;-75